sensor_id;sensor_type;location;lat;lon;timestamp;P1;durP1;ratioP1;P2;durP2;ratioP2
29210;SDS011;16250;49.932;10.980;2023-03-14T00:00:10;55.70;;;53.33;;
29210;SDS011;16250;49.932;10.980;2023-03-14T00:02:37;56.03;;;53.67;;
29210;SDS011;16250;49.932;10.980;2023-03-14T00:05:03;53.63;;;51.42;;
29210;SDS011;16250;49.932;10.980;2023-03-14T00:07:40;55.75;;;53.42;;
29210;SDS011;16250;49.932;10.980;2023-03-14T00:10:07;58.22;;;55.70;;
29210;SDS011;16250;49.932;10.980;2023-03-14T00:12:34;56.08;;;53.80;;
29210;SDS011;16250;49.932;10.980;2023-03-14T00:15:00;53.83;;;51.60;;
29210;SDS011;16250;49.932;10.980;2023-03-14T00:17:28;55.70;;;53.45;;
29210;SDS011;16250;49.932;10.980;2023-03-14T00:19:53;53.40;;;51.10;;
29210;SDS011;16250;49.932;10.980;2023-03-14T00:22:19;55.20;;;52.92;;
29210;SDS011;16250;49.932;10.980;2023-03-14T00:24:45;55.25;;;52.95;;
29210;SDS011;16250;49.932;10.980;2023-03-14T00:27:11;51.63;;;49.42;;
29210;SDS011;16250;49.932;10.980;2023-03-14T00:29:37;54.78;;;52.47;;
29210;SDS011;16250;49.932;10.980;2023-03-14T00:32:02;51.97;;;49.88;;
29210;SDS011;16250;49.932;10.980;2023-03-14T00:34:28;52.55;;;50.33;;
29210;SDS011;16250;49.932;10.980;2023-03-14T00:36:55;53.05;;;50.88;;
29210;SDS011;16250;49.932;10.980;2023-03-14T00:39:21;51.92;;;49.78;;
29210;SDS011;16250;49.932;10.980;2023-03-14T00:41:46;53.95;;;51.75;;
29210;SDS011;16250;49.932;10.980;2023-03-14T00:44:12;50.60;;;48.30;;
29210;SDS011;16250;49.932;10.980;2023-03-14T00:46:37;50.97;;;48.88;;
29210;SDS011;16250;49.932;10.980;2023-03-14T00:49:03;51.40;;;49.30;;
29210;SDS011;16250;49.932;10.980;2023-03-14T00:51:28;49.35;;;47.28;;
29210;SDS011;16250;49.932;10.980;2023-03-14T00:53:54;51.20;;;48.90;;
29210;SDS011;16250;49.932;10.980;2023-03-14T00:56:19;51.95;;;49.85;;
29210;SDS011;16250;49.932;10.980;2023-03-14T00:58:45;50.42;;;48.33;;
29210;SDS011;16250;49.932;10.980;2023-03-14T01:01:13;47.28;;;45.38;;
29210;SDS011;16250;49.932;10.980;2023-03-14T01:03:40;47.90;;;45.90;;
29210;SDS011;16250;49.932;10.980;2023-03-14T01:06:16;48.58;;;46.58;;
29210;SDS011;16250;49.932;10.980;2023-03-14T01:08:43;49.42;;;47.38;;
29210;SDS011;16250;49.932;10.980;2023-03-14T01:11:09;51.53;;;49.42;;
29210;SDS011;16250;49.932;10.980;2023-03-14T01:13:37;51.35;;;49.35;;
29210;SDS011;16250;49.932;10.980;2023-03-14T01:16:03;51.70;;;49.60;;
29210;SDS011;16250;49.932;10.980;2023-03-14T01:18:31;51.10;;;49.00;;
29210;SDS011;16250;49.932;10.980;2023-03-14T01:20:57;54.30;;;51.88;;
29210;SDS011;16250;49.932;10.980;2023-03-14T01:23:22;51.83;;;49.72;;
29210;SDS011;16250;49.932;10.980;2023-03-14T01:25:48;50.25;;;48.15;;
29210;SDS011;16250;49.932;10.980;2023-03-14T01:28:14;48.83;;;46.83;;
29210;SDS011;16250;49.932;10.980;2023-03-14T01:30:41;51.78;;;49.63;;
29210;SDS011;16250;49.932;10.980;2023-03-14T01:33:06;51.40;;;49.30;;
29210;SDS011;16250;49.932;10.980;2023-03-14T01:35:32;49.50;;;47.50;;
29210;SDS011;16250;49.932;10.980;2023-03-14T01:37:58;51.38;;;49.17;;
29210;SDS011;16250;49.932;10.980;2023-03-14T01:40:24;53.75;;;51.55;;
29210;SDS011;16250;49.932;10.980;2023-03-14T01:42:56;51.70;;;49.60;;
29210;SDS011;16250;49.932;10.980;2023-03-14T01:48:26;52.83;;;50.63;;
29210;SDS011;16250;49.932;10.980;2023-03-14T01:50:54;51.30;;;49.20;;
29210;SDS011;16250;49.932;10.980;2023-03-14T01:53:19;53.70;;;51.40;;
29210;SDS011;16250;49.932;10.980;2023-03-14T01:55:47;51.28;;;49.08;;
29210;SDS011;16250;49.932;10.980;2023-03-14T01:58:13;53.50;;;51.28;;
29210;SDS011;16250;49.932;10.980;2023-03-14T02:00:40;52.17;;;50.08;;
29210;SDS011;16250;49.932;10.980;2023-03-14T02:03:07;53.80;;;51.45;;
29210;SDS011;16250;49.932;10.980;2023-03-14T02:05:38;51.72;;;49.63;;
29210;SDS011;16250;49.932;10.980;2023-03-14T02:08:10;51.08;;;48.97;;
29210;SDS011;16250;49.932;10.980;2023-03-14T02:10:44;54.70;;;52.40;;
29210;SDS011;16250;49.932;10.980;2023-03-14T02:13:11;54.78;;;52.28;;
29210;SDS011;16250;49.932;10.980;2023-03-14T02:15:59;54.75;;;52.45;;
29210;SDS011;16250;49.932;10.980;2023-03-14T02:19:00;55.35;;;53.15;;
29210;SDS011;16250;49.932;10.980;2023-03-14T02:21:43;57.45;;;55.15;;
29210;SDS011;16250;49.932;10.980;2023-03-14T02:29:53;53.13;;;50.97;;
29210;SDS011;16250;49.932;10.980;2023-03-14T02:32:23;52.92;;;50.72;;
29210;SDS011;16250;49.932;10.980;2023-03-14T02:34:52;51.08;;;49.05;;
29210;SDS011;16250;49.932;10.980;2023-03-14T02:37:20;50.75;;;48.67;;
29210;SDS011;16250;49.932;10.980;2023-03-14T02:39:46;53.05;;;50.92;;
29210;SDS011;16250;49.932;10.980;2023-03-14T02:42:15;52.00;;;49.88;;
29210;SDS011;16250;49.932;10.980;2023-03-14T02:44:48;51.50;;;49.42;;
29210;SDS011;16250;49.932;10.980;2023-03-14T02:47:37;53.05;;;50.95;;
29210;SDS011;16250;49.932;10.980;2023-03-14T02:50:12;53.30;;;51.17;;
29210;SDS011;16250;49.932;10.980;2023-03-14T02:52:38;52.53;;;50.42;;
29210;SDS011;16250;49.932;10.980;2023-03-14T02:55:04;53.35;;;51.25;;
29210;SDS011;16250;49.932;10.980;2023-03-14T02:57:31;52.03;;;49.92;;
29210;SDS011;16250;49.932;10.980;2023-03-14T03:00:00;48.55;;;46.55;;
29210;SDS011;16250;49.932;10.980;2023-03-14T03:02:27;49.38;;;47.28;;
29210;SDS011;16250;49.932;10.980;2023-03-14T03:04:53;47.95;;;45.95;;
29210;SDS011;16250;49.932;10.980;2023-03-14T03:07:19;51.42;;;49.42;;
29210;SDS011;16250;49.932;10.980;2023-03-14T03:09:44;50.03;;;48.03;;
29210;SDS011;16250;49.932;10.980;2023-03-14T03:12:10;47.47;;;45.58;;
29210;SDS011;16250;49.932;10.980;2023-03-14T03:14:36;51.30;;;49.30;;
29210;SDS011;16250;49.932;10.980;2023-03-14T03:17:04;51.75;;;49.58;;
29210;SDS011;16250;49.932;10.980;2023-03-14T03:19:30;48.55;;;46.65;;
29210;SDS011;16250;49.932;10.980;2023-03-14T03:21:56;47.92;;;45.92;;
29210;SDS011;16250;49.932;10.980;2023-03-14T03:24:21;46.78;;;44.83;;
29210;SDS011;16250;49.932;10.980;2023-03-14T03:26:46;47.42;;;45.47;;
29210;SDS011;16250;49.932;10.980;2023-03-14T03:29:12;47.80;;;45.83;;
29210;SDS011;16250;49.932;10.980;2023-03-14T03:31:38;47.28;;;45.38;;
29210;SDS011;16250;49.932;10.980;2023-03-14T03:34:03;46.03;;;44.22;;
29210;SDS011;16250;49.932;10.980;2023-03-14T03:36:29;46.38;;;44.50;;
29210;SDS011;16250;49.932;10.980;2023-03-14T03:38:57;44.60;;;42.80;;
29210;SDS011;16250;49.932;10.980;2023-03-14T03:41:23;49.25;;;47.17;;
29210;SDS011;16250;49.932;10.980;2023-03-14T03:43:49;46.63;;;44.83;;
29210;SDS011;16250;49.932;10.980;2023-03-14T03:46:16;48.60;;;46.58;;
29210;SDS011;16250;49.932;10.980;2023-03-14T03:48:41;48.00;;;46.03;;
29210;SDS011;16250;49.932;10.980;2023-03-14T03:51:06;46.40;;;44.60;;
29210;SDS011;16250;49.932;10.980;2023-03-14T03:53:33;48.72;;;46.75;;
29210;SDS011;16250;49.932;10.980;2023-03-14T03:56:02;47.88;;;45.88;;
29210;SDS011;16250;49.932;10.980;2023-03-14T03:58:27;46.80;;;44.80;;
29210;SDS011;16250;49.932;10.980;2023-03-14T04:00:53;46.63;;;44.63;;
29210;SDS011;16250;49.932;10.980;2023-03-14T04:03:19;43.50;;;41.80;;
29210;SDS011;16250;49.932;10.980;2023-03-14T04:05:44;45.85;;;43.85;;
29210;SDS011;16250;49.932;10.980;2023-03-14T04:08:10;43.50;;;41.70;;
29210;SDS011;16250;49.932;10.980;2023-03-14T04:10:36;46.40;;;44.50;;
29210;SDS011;16250;49.932;10.980;2023-03-14T04:13:08;46.47;;;44.40;;
29210;SDS011;16250;49.932;10.980;2023-03-14T04:15:35;49.45;;;47.45;;
29210;SDS011;16250;49.932;10.980;2023-03-14T04:18:07;49.75;;;47.55;;
29210;SDS011;16250;49.932;10.980;2023-03-14T04:20:34;47.25;;;45.17;;
29210;SDS011;16250;49.932;10.980;2023-03-14T04:23:00;48.92;;;46.92;;
29210;SDS011;16250;49.932;10.980;2023-03-14T04:25:26;47.00;;;45.00;;
29210;SDS011;16250;49.932;10.980;2023-03-14T04:27:55;47.95;;;46.00;;
29210;SDS011;16250;49.932;10.980;2023-03-14T04:30:23;48.47;;;46.53;;
29210;SDS011;16250;49.932;10.980;2023-03-14T04:32:52;46.75;;;44.85;;
29210;SDS011;16250;49.932;10.980;2023-03-14T04:35:19;46.78;;;44.83;;
29210;SDS011;16250;49.932;10.980;2023-03-14T04:37:45;45.28;;;43.47;;
29210;SDS011;16250;49.932;10.980;2023-03-14T04:40:14;42.00;;;40.20;;
29210;SDS011;16250;49.932;10.980;2023-03-14T04:42:40;47.60;;;45.60;;
29210;SDS011;16250;49.932;10.980;2023-03-14T04:45:07;46.22;;;44.33;;
29210;SDS011;16250;49.932;10.980;2023-03-14T04:47:33;46.47;;;44.47;;
29210;SDS011;16250;49.932;10.980;2023-03-14T04:49:59;44.78;;;42.97;;
29210;SDS011;16250;49.932;10.980;2023-03-14T04:52:25;44.35;;;42.55;;
29210;SDS011;16250;49.932;10.980;2023-03-14T04:54:51;43.58;;;41.78;;
29210;SDS011;16250;49.932;10.980;2023-03-14T04:57:17;44.35;;;42.55;;
29210;SDS011;16250;49.932;10.980;2023-03-14T04:59:43;43.78;;;42.00;;
29210;SDS011;16250;49.932;10.980;2023-03-14T05:02:29;43.75;;;41.85;;
29210;SDS011;16250;49.932;10.980;2023-03-14T05:05:13;44.58;;;42.65;;
29210;SDS011;16250;49.932;10.980;2023-03-14T05:08:01;45.85;;;43.90;;
29210;SDS011;16250;49.932;10.980;2023-03-14T05:10:56;44.40;;;42.60;;
29210;SDS011;16250;49.932;10.980;2023-03-14T05:13:40;46.58;;;44.58;;
29210;SDS011;16250;49.932;10.980;2023-03-14T05:16:21;45.42;;;43.42;;
29210;SDS011;16250;49.932;10.980;2023-03-14T05:19:10;48.00;;;45.85;;
29210;SDS011;16250;49.932;10.980;2023-03-14T05:21:39;46.28;;;44.30;;
29210;SDS011;16250;49.932;10.980;2023-03-14T05:24:25;46.15;;;44.25;;
29210;SDS011;16250;49.932;10.980;2023-03-14T05:27:08;48.63;;;46.65;;
29210;SDS011;16250;49.932;10.980;2023-03-14T05:29:43;48.65;;;46.70;;
29210;SDS011;16250;49.932;10.980;2023-03-14T05:32:17;43.92;;;41.92;;
29210;SDS011;16250;49.932;10.980;2023-03-14T05:35:06;46.55;;;44.65;;
29210;SDS011;16250;49.932;10.980;2023-03-14T05:37:40;46.95;;;44.92;;
29210;SDS011;16250;49.932;10.980;2023-03-14T05:40:25;46.03;;;44.05;;
29210;SDS011;16250;49.932;10.980;2023-03-14T05:43:02;45.78;;;43.88;;
29210;SDS011;16250;49.932;10.980;2023-03-14T05:45:36;46.80;;;44.78;;
29210;SDS011;16250;49.932;10.980;2023-03-14T05:48:09;44.17;;;42.28;;
29210;SDS011;16250;49.932;10.980;2023-03-14T05:50:57;45.35;;;43.30;;
29210;SDS011;16250;49.932;10.980;2023-03-14T05:53:47;55.80;;;51.75;;
29210;SDS011;16250;49.932;10.980;2023-03-14T05:56:32;55.43;;;52.17;;
29210;SDS011;16250;49.932;10.980;2023-03-14T05:59:24;49.20;;;46.80;;
29210;SDS011;16250;49.932;10.980;2023-03-14T06:01:58;49.33;;;47.05;;
29210;SDS011;16250;49.932;10.980;2023-03-14T06:04:27;49.28;;;46.97;;
29210;SDS011;16250;49.932;10.980;2023-03-14T06:06:56;54.50;;;51.90;;
29210;SDS011;16250;49.932;10.980;2023-03-14T06:09:22;47.80;;;45.60;;
29210;SDS011;16250;49.932;10.980;2023-03-14T06:11:49;47.13;;;45.13;;
29210;SDS011;16250;49.932;10.980;2023-03-14T06:14:15;51.30;;;48.85;;
29210;SDS011;16250;49.932;10.980;2023-03-14T06:16:45;49.42;;;47.20;;
29210;SDS011;16250;49.932;10.980;2023-03-14T06:19:11;47.00;;;45.00;;
29210;SDS011;16250;49.932;10.980;2023-03-14T06:21:37;46.63;;;44.40;;
29210;SDS011;16250;49.932;10.980;2023-03-14T06:24:02;45.47;;;43.45;;
29210;SDS011;16250;49.932;10.980;2023-03-14T06:26:31;49.17;;;46.97;;
29210;SDS011;16250;49.932;10.980;2023-03-14T06:28:57;49.38;;;47.17;;
29210;SDS011;16250;49.932;10.980;2023-03-14T06:31:24;47.17;;;45.17;;
29210;SDS011;16250;49.932;10.980;2023-03-14T06:33:55;48.75;;;46.40;;
29210;SDS011;16250;49.932;10.980;2023-03-14T06:36:23;49.22;;;46.97;;
29210;SDS011;16250;49.932;10.980;2023-03-14T06:38:49;48.20;;;45.88;;
29210;SDS011;16250;49.932;10.980;2023-03-14T06:41:15;48.05;;;45.85;;
29210;SDS011;16250;49.932;10.980;2023-03-14T06:43:42;46.78;;;44.63;;
29210;SDS011;16250;49.932;10.980;2023-03-14T06:46:08;44.35;;;42.40;;
29210;SDS011;16250;49.932;10.980;2023-03-14T06:48:37;47.63;;;45.22;;
29210;SDS011;16250;49.932;10.980;2023-03-14T06:51:02;49.60;;;47.10;;
29210;SDS011;16250;49.932;10.980;2023-03-14T06:53:28;49.88;;;47.42;;
29210;SDS011;16250;49.932;10.980;2023-03-14T06:55:55;48.25;;;46.05;;
29210;SDS011;16250;49.932;10.980;2023-03-14T06:58:21;45.05;;;43.15;;
29210;SDS011;16250;49.932;10.980;2023-03-14T07:00:46;45.25;;;43.35;;
29210;SDS011;16250;49.932;10.980;2023-03-14T07:03:16;44.35;;;42.47;;
29210;SDS011;16250;49.932;10.980;2023-03-14T07:05:45;47.65;;;45.17;;
29210;SDS011;16250;49.932;10.980;2023-03-14T07:08:11;46.22;;;43.85;;
29210;SDS011;16250;49.932;10.980;2023-03-14T07:10:37;51.33;;;48.25;;
29210;SDS011;16250;49.932;10.980;2023-03-14T07:13:05;46.60;;;44.20;;
29210;SDS011;16250;49.932;10.980;2023-03-14T07:15:33;43.83;;;41.83;;
29210;SDS011;16250;49.932;10.980;2023-03-14T07:18:03;49.92;;;47.33;;
29210;SDS011;16250;49.932;10.980;2023-03-14T07:20:30;46.75;;;44.25;;
29210;SDS011;16250;49.932;10.980;2023-03-14T07:22:57;43.47;;;41.58;;
29210;SDS011;16250;49.932;10.980;2023-03-14T07:25:34;44.67;;;42.47;;
29210;SDS011;16250;49.932;10.980;2023-03-14T07:27:59;44.25;;;42.25;;
29210;SDS011;16250;49.932;10.980;2023-03-14T07:30:25;45.65;;;43.47;;
29210;SDS011;16250;49.932;10.980;2023-03-14T07:32:51;41.83;;;39.90;;
29210;SDS011;16250;49.932;10.980;2023-03-14T07:35:16;44.15;;;41.95;;
29210;SDS011;16250;49.932;10.980;2023-03-14T07:37:42;42.63;;;40.53;;
29210;SDS011;16250;49.932;10.980;2023-03-14T07:40:09;39.90;;;38.20;;
29210;SDS011;16250;49.932;10.980;2023-03-14T07:42:37;38.88;;;36.97;;
29210;SDS011;16250;49.932;10.980;2023-03-14T07:45:23;39.33;;;37.63;;
29210;SDS011;16250;49.932;10.980;2023-03-14T07:47:49;40.45;;;38.75;;
29210;SDS011;16250;49.932;10.980;2023-03-14T07:50:14;36.90;;;35.13;;
29210;SDS011;16250;49.932;10.980;2023-03-14T07:52:40;34.20;;;32.70;;
29210;SDS011;16250;49.932;10.980;2023-03-14T07:55:05;33.45;;;31.95;;
29210;SDS011;16250;49.932;10.980;2023-03-14T07:57:31;30.23;;;28.83;;
29210;SDS011;16250;49.932;10.980;2023-03-14T07:59:56;29.30;;;27.85;;
29210;SDS011;16250;49.932;10.980;2023-03-14T08:02:22;27.83;;;26.58;;
29210;SDS011;16250;49.932;10.980;2023-03-14T08:04:49;27.50;;;26.30;;
29210;SDS011;16250;49.932;10.980;2023-03-14T08:07:14;28.48;;;27.17;;
29210;SDS011;16250;49.932;10.980;2023-03-14T08:09:40;25.98;;;24.65;;
29210;SDS011;16250;49.932;10.980;2023-03-14T08:12:05;25.05;;;23.95;;
29210;SDS011;16250;49.932;10.980;2023-03-14T08:14:31;27.05;;;25.75;;
29210;SDS011;16250;49.932;10.980;2023-03-14T08:16:56;27.27;;;26.08;;
29210;SDS011;16250;49.932;10.980;2023-03-14T08:19:22;25.42;;;24.38;;
29210;SDS011;16250;49.932;10.980;2023-03-14T08:21:47;23.80;;;22.67;;
29210;SDS011;16250;49.932;10.980;2023-03-14T08:24:13;23.92;;;22.63;;
29210;SDS011;16250;49.932;10.980;2023-03-14T08:26:38;20.13;;;19.05;;
29210;SDS011;16250;49.932;10.980;2023-03-14T08:29:03;21.48;;;20.55;;
29210;SDS011;16250;49.932;10.980;2023-03-14T08:31:29;19.67;;;18.60;;
29210;SDS011;16250;49.932;10.980;2023-03-14T08:33:55;19.15;;;18.05;;
29210;SDS011;16250;49.932;10.980;2023-03-14T08:36:20;18.00;;;17.00;;
29210;SDS011;16250;49.932;10.980;2023-03-14T08:38:45;21.35;;;20.35;;
29210;SDS011;16250;49.932;10.980;2023-03-14T08:41:11;22.17;;;21.00;;
29210;SDS011;16250;49.932;10.980;2023-03-14T08:43:36;18.00;;;17.15;;
29210;SDS011;16250;49.932;10.980;2023-03-14T08:46:02;12.82;;;12.02;;
29210;SDS011;16250;49.932;10.980;2023-03-14T08:48:28;14.20;;;13.40;;
29210;SDS011;16250;49.932;10.980;2023-03-14T08:51:04;11.65;;;10.85;;
29210;SDS011;16250;49.932;10.980;2023-03-14T08:53:32;12.60;;;11.80;;
29210;SDS011;16250;49.932;10.980;2023-03-14T08:55:57;7.32;;;6.82;;
29210;SDS011;16250;49.932;10.980;2023-03-14T08:58:23;10.63;;;9.93;;
29210;SDS011;16250;49.932;10.980;2023-03-14T09:00:49;9.15;;;8.48;;
29210;SDS011;16250;49.932;10.980;2023-03-14T09:03:14;7.32;;;6.75;;
29210;SDS011;16250;49.932;10.980;2023-03-14T09:05:39;8.57;;;7.97;;
29210;SDS011;16250;49.932;10.980;2023-03-14T09:08:05;9.75;;;9.15;;
29210;SDS011;16250;49.932;10.980;2023-03-14T09:10:30;10.20;;;9.60;;
29210;SDS011;16250;49.932;10.980;2023-03-14T09:12:56;14.32;;;13.40;;
29210;SDS011;16250;49.932;10.980;2023-03-14T09:15:23;12.07;;;11.27;;
29210;SDS011;16250;49.932;10.980;2023-03-14T09:17:48;14.55;;;13.55;;
29210;SDS011;16250;49.932;10.980;2023-03-14T09:20:14;14.32;;;13.52;;
29210;SDS011;16250;49.932;10.980;2023-03-14T09:22:39;16.15;;;15.25;;
29210;SDS011;16250;49.932;10.980;2023-03-14T09:25:05;12.85;;;12.15;;
29210;SDS011;16250;49.932;10.980;2023-03-14T09:27:31;11.27;;;10.68;;
29210;SDS011;16250;49.932;10.980;2023-03-14T09:29:56;11.20;;;10.30;;
29210;SDS011;16250;49.932;10.980;2023-03-14T09:32:21;10.45;;;9.93;;
29210;SDS011;16250;49.932;10.980;2023-03-14T09:34:47;9.70;;;9.13;;
29210;SDS011;16250;49.932;10.980;2023-03-14T09:37:12;11.52;;;10.93;;
29210;SDS011;16250;49.932;10.980;2023-03-14T09:39:38;11.73;;;10.82;;
29210;SDS011;16250;49.932;10.980;2023-03-14T09:42:04;9.32;;;8.52;;
29210;SDS011;16250;49.932;10.980;2023-03-14T09:44:32;9.45;;;8.50;;
29210;SDS011;16250;49.932;10.980;2023-03-14T09:47:00;6.20;;;5.80;;
29210;SDS011;16250;49.932;10.980;2023-03-14T09:49:28;7.90;;;7.10;;
29210;SDS011;16250;49.932;10.980;2023-03-14T09:51:56;7.75;;;7.25;;
29210;SDS011;16250;49.932;10.980;2023-03-14T09:57:03;7.20;;;6.63;;
29210;SDS011;16250;49.932;10.980;2023-03-14T09:59:29;7.55;;;6.93;;
29210;SDS011;16250;49.932;10.980;2023-03-14T10:01:56;5.97;;;5.10;;
29210;SDS011;16250;49.932;10.980;2023-03-14T10:04:25;6.50;;;6.05;;
29210;SDS011;16250;49.932;10.980;2023-03-14T10:06:50;5.25;;;4.90;;
29210;SDS011;16250;49.932;10.980;2023-03-14T10:09:20;5.88;;;5.38;;
29210;SDS011;16250;49.932;10.980;2023-03-14T10:11:51;8.65;;;8.15;;
29210;SDS011;16250;49.932;10.980;2023-03-14T10:14:29;7.95;;;7.25;;
29210;SDS011;16250;49.932;10.980;2023-03-14T10:17:10;6.28;;;5.88;;
29210;SDS011;16250;49.932;10.980;2023-03-14T10:19:37;5.80;;;5.30;;
29210;SDS011;16250;49.932;10.980;2023-03-14T10:22:16;7.70;;;7.20;;
29210;SDS011;16250;49.932;10.980;2023-03-14T10:24:45;6.88;;;6.38;;
29210;SDS011;16250;49.932;10.980;2023-03-14T10:27:19;7.65;;;7.00;;
29210;SDS011;16250;49.932;10.980;2023-03-14T10:29:52;7.60;;;6.97;;
29210;SDS011;16250;49.932;10.980;2023-03-14T10:32:20;8.05;;;7.00;;
29210;SDS011;16250;49.932;10.980;2023-03-14T10:34:46;8.30;;;7.80;;
29210;SDS011;16250;49.932;10.980;2023-03-14T10:37:58;10.32;;;9.50;;
29210;SDS011;16250;49.932;10.980;2023-03-14T10:40:37;9.90;;;9.07;;
29210;SDS011;16250;49.932;10.980;2023-03-14T10:43:05;9.43;;;8.82;;
29210;SDS011;16250;49.932;10.980;2023-03-14T10:45:38;7.97;;;7.45;;
29210;SDS011;16250;49.932;10.980;2023-03-14T10:48:06;7.28;;;6.68;;
29210;SDS011;16250;49.932;10.980;2023-03-14T10:51:05;5.10;;;4.75;;
29210;SDS011;16250;49.932;10.980;2023-03-14T10:55:59;5.50;;;5.00;;
29210;SDS011;16250;49.932;10.980;2023-03-14T10:58:28;3.42;;;2.97;;
29210;SDS011;16250;49.932;10.980;2023-03-14T11:07:27;4.20;;;3.05;;
29210;SDS011;16250;49.932;10.980;2023-03-14T11:10:32;2.53;;;1.85;;
29210;SDS011;16250;49.932;10.980;2023-03-14T11:21:19;3.38;;;1.60;;
29210;SDS011;16250;49.932;10.980;2023-03-14T11:24:02;1.25;;;1.15;;
29210;SDS011;16250;49.932;10.980;2023-03-14T11:32:31;1.10;;;1.00;;
29210;SDS011;16250;49.932;10.980;2023-03-14T11:37:51;1.23;;;0.88;;
29210;SDS011;16250;49.932;10.980;2023-03-14T11:40:22;0.90;;;0.90;;
29210;SDS011;16250;49.932;10.980;2023-03-14T11:43:51;1.42;;;0.93;;
29210;SDS011;16250;49.932;10.980;2023-03-14T11:45:45;0.80;;;0.80;;
29210;SDS011;16250;49.932;10.980;2023-03-14T11:51:01;1.73;;;0.70;;
29210;SDS011;16250;49.932;10.980;2023-03-14T11:56:27;0.82;;;0.77;;
29210;SDS011;16250;49.932;10.980;2023-03-14T11:59:01;1.00;;;0.70;;
29210;SDS011;16250;49.932;10.980;2023-03-14T12:01:33;0.93;;;0.70;;
29210;SDS011;16250;49.932;10.980;2023-03-14T12:04:15;0.57;;;0.57;;
29210;SDS011;16250;49.932;10.980;2023-03-14T12:06:48;3.45;;;0.98;;
29210;SDS011;16250;49.932;10.980;2023-03-14T12:09:15;0.47;;;0.40;;
29210;SDS011;16250;49.932;10.980;2023-03-14T12:12:01;0.77;;;0.60;;
29210;SDS011;16250;49.932;10.980;2023-03-14T12:14:28;1.23;;;0.40;;
29210;SDS011;16250;49.932;10.980;2023-03-14T12:17:04;1.38;;;0.40;;
29210;SDS011;16250;49.932;10.980;2023-03-14T12:19:35;1.15;;;0.50;;
29210;SDS011;16250;49.932;10.980;2023-03-14T12:24:31;0.68;;;0.50;;
29210;SDS011;16250;49.932;10.980;2023-03-14T12:27:00;1.98;;;0.75;;
29210;SDS011;16250;49.932;10.980;2023-03-14T12:29:26;1.15;;;0.65;;
29210;SDS011;16250;49.932;10.980;2023-03-14T12:32:35;0.88;;;0.70;;
29210;SDS011;16250;49.932;10.980;2023-03-14T12:34:50;0.77;;;0.73;;
29210;SDS011;16250;49.932;10.980;2023-03-14T12:37:33;0.60;;;0.60;;
29210;SDS011;16250;49.932;10.980;2023-03-14T12:40:18;2.40;;;0.90;;
29210;SDS011;16250;49.932;10.980;2023-03-14T12:45:25;1.23;;;1.17;;
29210;SDS011;16250;49.932;10.980;2023-03-14T12:48:33;1.98;;;1.88;;
29210;SDS011;16250;49.932;10.980;2023-03-14T12:50:55;6.10;;;5.80;;
29210;SDS011;16250;49.932;10.980;2023-03-14T12:53:35;5.45;;;5.25;;
29210;SDS011;16250;49.932;10.980;2023-03-14T13:01:56;21.63;;;20.73;;
29210;SDS011;16250;49.932;10.980;2023-03-14T13:04:28;21.92;;;21.05;;
29210;SDS011;16250;49.932;10.980;2023-03-14T13:06:57;27.73;;;26.52;;
29210;SDS011;16250;49.932;10.980;2023-03-14T13:11:55;22.00;;;21.10;;
29210;SDS011;16250;49.932;10.980;2023-03-14T13:14:22;28.42;;;27.33;;
29210;SDS011;16250;49.932;10.980;2023-03-14T13:16:48;23.10;;;22.20;;
29210;SDS011;16250;49.932;10.980;2023-03-14T13:19:18;27.27;;;26.10;;
29210;SDS011;16250;49.932;10.980;2023-03-14T13:21:47;21.90;;;21.00;;
29210;SDS011;16250;49.932;10.980;2023-03-14T13:24:23;15.30;;;14.52;;
29210;SDS011;16250;49.932;10.980;2023-03-14T13:26:51;22.73;;;21.83;;
29210;SDS011;16250;49.932;10.980;2023-03-14T13:29:20;21.50;;;20.70;;
29210;SDS011;16250;49.932;10.980;2023-03-14T13:31:48;24.25;;;23.33;;
29210;SDS011;16250;49.932;10.980;2023-03-14T13:34:15;22.58;;;21.50;;
29210;SDS011;16250;49.932;10.980;2023-03-14T13:36:40;30.85;;;29.65;;
29210;SDS011;16250;49.932;10.980;2023-03-14T13:39:13;32.50;;;31.20;;
29210;SDS011;16250;49.932;10.980;2023-03-14T13:41:40;33.80;;;32.50;;
29210;SDS011;16250;49.932;10.980;2023-03-14T13:44:13;36.15;;;34.75;;
29210;SDS011;16250;49.932;10.980;2023-03-14T13:46:41;37.63;;;36.13;;
29210;SDS011;16250;49.932;10.980;2023-03-14T13:49:10;39.78;;;38.20;;
29210;SDS011;16250;49.932;10.980;2023-03-14T13:51:38;41.60;;;39.92;;
29210;SDS011;16250;49.932;10.980;2023-03-14T13:54:11;44.72;;;42.92;;
29210;SDS011;16250;49.932;10.980;2023-03-14T13:56:41;45.80;;;43.65;;
29210;SDS011;16250;49.932;10.980;2023-03-14T13:59:26;42.72;;;40.92;;
29210;SDS011;16250;49.932;10.980;2023-03-14T14:01:53;42.28;;;40.53;;
29210;SDS011;16250;49.932;10.980;2023-03-14T14:04:20;43.72;;;41.70;;
29210;SDS011;16250;49.932;10.980;2023-03-14T14:06:57;43.95;;;42.13;;
29210;SDS011;16250;49.932;10.980;2023-03-14T14:09:25;43.22;;;41.30;;
29210;SDS011;16250;49.932;10.980;2023-03-14T14:11:56;42.00;;;40.25;;
29210;SDS011;16250;49.932;10.980;2023-03-14T14:14:25;43.03;;;41.33;;
29210;SDS011;16250;49.932;10.980;2023-03-14T14:16:55;44.22;;;42.22;;
29210;SDS011;16250;49.932;10.980;2023-03-14T14:19:23;43.10;;;41.30;;
29210;SDS011;16250;49.932;10.980;2023-03-14T14:21:50;41.40;;;39.70;;
29210;SDS011;16250;49.932;10.980;2023-03-14T14:24:16;44.78;;;42.95;;
29210;SDS011;16250;49.932;10.980;2023-03-14T14:26:51;41.00;;;39.22;;
29210;SDS011;16250;49.932;10.980;2023-03-14T14:29:25;43.95;;;42.05;;
29210;SDS011;16250;49.932;10.980;2023-03-14T14:34:39;30.00;;;28.80;;
29210;SDS011;16250;49.932;10.980;2023-03-14T14:37:40;14.43;;;13.88;;
29210;SDS011;16250;49.932;10.980;2023-03-14T14:40:08;9.30;;;8.95;;
29210;SDS011;16250;49.932;10.980;2023-03-14T14:42:38;6.10;;;5.90;;
29210;SDS011;16250;49.932;10.980;2023-03-14T14:45:04;9.43;;;9.00;;
29210;SDS011;16250;49.932;10.980;2023-03-14T14:47:32;8.32;;;7.93;;
29210;SDS011;16250;49.932;10.980;2023-03-14T14:49:59;4.05;;;3.90;;
29210;SDS011;16250;49.932;10.980;2023-03-14T14:52:41;4.63;;;4.43;;
29210;SDS011;16250;49.932;10.980;2023-03-14T14:55:12;4.45;;;4.25;;
29210;SDS011;16250;49.932;10.980;2023-03-14T14:57:47;4.65;;;4.45;;
29210;SDS011;16250;49.932;10.980;2023-03-14T15:00:22;5.95;;;5.65;;
29210;SDS011;16250;49.932;10.980;2023-03-14T15:02:49;6.20;;;5.93;;
29210;SDS011;16250;49.932;10.980;2023-03-14T15:05:23;5.55;;;5.35;;
29210;SDS011;16250;49.932;10.980;2023-03-14T15:07:50;6.93;;;6.55;;
29210;SDS011;16250;49.932;10.980;2023-03-14T15:10:17;7.18;;;6.90;;
29210;SDS011;16250;49.932;10.980;2023-03-14T15:12:43;8.23;;;7.88;;
29210;SDS011;16250;49.932;10.980;2023-03-14T15:15:09;4.53;;;4.32;;
29210;SDS011;16250;49.932;10.980;2023-03-14T15:17:35;4.82;;;4.63;;
29210;SDS011;16250;49.932;10.980;2023-03-14T15:20:03;4.13;;;3.83;;
29210;SDS011;16250;49.932;10.980;2023-03-14T15:22:29;4.80;;;4.60;;
29210;SDS011;16250;49.932;10.980;2023-03-14T15:24:55;5.05;;;4.85;;
29210;SDS011;16250;49.932;10.980;2023-03-14T15:27:20;4.90;;;4.70;;
29210;SDS011;16250;49.932;10.980;2023-03-14T15:29:46;3.30;;;3.20;;